Time;durP1;ratioP1;P1;durP2;ratioP2;P2;SDS_P1;SDS_P2;PMS_P1;PMS_P2;Temp;Humidity;BMP_temperature;BMP_pressure;BME280_temperature;BME280_humidity;BME280_pressure;Samples;Min_cycle;Max_cycle;Signal;HPM_P1;HPM_P2
2021/12/14 00:01:54;;;;;;;33.10;21.13;;;8.60;99.90;;;;;;5010580;28;20491;-74
2021/12/14 00:04:31;;;;;;;37.53;21.42;;;8.60;99.90;;;;;;4975966;28;20068;-73
2021/12/14 00:07:00;;;;;;;31.85;20.15;;;8.60;99.90;;;;;;5011345;28;20018;-74
2021/12/14 00:09:31;;;;;;;36.67;22.58;;;8.70;99.90;;;;;;4993485;28;20113;-74
2021/12/14 00:15:03;;;;;;;39.67;22.85;;;8.60;99.90;;;;;;5005192;28;20029;-74
2021/12/14 00:17:35;;;;;;;37.30;21.77;;;8.60;99.90;;;;;;5010026;28;20072;-73
2021/12/14 00:20:04;;;;;;;35.92;21.85;;;8.50;99.90;;;;;;5010641;28;20419;-73
2021/12/14 00:24:57;;;;;;;36.97;22.77;;;8.50;99.90;;;;;;5010387;28;20438;-78
2021/12/14 00:27:24;;;;;;;36.28;22.05;;;8.50;99.90;;;;;;5009575;28;20022;-74
2021/12/14 00:29:54;;;;;;;34.97;21.75;;;8.50;99.90;;;;;;5006261;28;20026;-74
2021/12/14 00:32:23;;;;;;;38.53;21.98;;;8.50;99.90;;;;;;4989835;28;20033;-74
2021/12/14 00:34:52;;;;;;;36.83;21.85;;;8.50;99.90;;;;;;5006884;28;20411;-74
2021/12/14 00:37:24;;;;;;;37.28;24.10;;;8.50;99.90;;;;;;5012900;28;20026;-74
2021/12/14 00:39:51;;;;;;;33.80;21.13;;;8.50;99.90;;;;;;5010226;28;20101;-74
2021/12/14 00:42:18;;;;;;;35.00;22.50;;;8.50;99.90;;;;;;5011112;28;20049;-74
2021/12/14 00:44:45;;;;;;;33.85;21.27;;;8.50;99.90;;;;;;5011047;28;20575;-74
2021/12/14 00:47:11;;;;;;;37.45;22.75;;;8.50;99.90;;;;;;5009345;28;20025;-75
2021/12/14 00:49:37;;;;;;;35.58;21.35;;;8.50;99.90;;;;;;5009061;28;20030;-74
2021/12/14 00:52:04;;;;;;;32.72;21.00;;;8.50;99.90;;;;;;4991308;28;20037;-75
2021/12/14 00:54:31;;;;;;;35.58;22.02;;;8.50;99.90;;;;;;5010042;28;20916;-74
2021/12/14 00:56:57;;;;;;;37.55;20.73;;;8.50;99.90;;;;;;5008701;28;20021;-74
2021/12/14 00:59:23;;;;;;;33.47;20.13;;;8.50;99.90;;;;;;4992793;28;20022;-74
2021/12/14 01:01:56;;;;;;;36.72;20.67;;;8.50;99.90;;;;;;4988593;28;20029;-74
2021/12/14 01:04:29;;;;;;;36.85;21.35;;;8.50;99.90;;;;;;5010823;28;20427;-74
2021/12/14 01:06:55;;;;;;;32.58;20.27;;;8.50;99.90;;;;;;5012840;28;20054;-74
2021/12/14 01:09:27;;;;;;;31.48;20.92;;;8.50;99.90;;;;;;5006698;28;20030;-74
2021/12/14 01:11:58;;;;;;;32.65;19.50;;;8.50;99.90;;;;;;5007980;28;20030;-74
2021/12/14 01:14:51;;;;;;;33.70;20.05;;;8.50;99.90;;;;;;5010603;28;20498;-74
2021/12/14 01:17:28;;;;;;;31.23;19.77;;;8.60;99.90;;;;;;5003392;28;20025;-74
2021/12/14 01:19:59;;;;;;;36.30;21.45;;;8.60;99.90;;;;;;5010064;28;20072;-74
2021/12/14 01:25:18;;;;;;;32.10;19.67;;;8.50;99.90;;;;;;5009260;28;20395;-74
2021/12/14 01:27:56;;;;;;;29.92;20.33;;;8.50;99.90;;;;;;5005671;28;20045;-74
2021/12/14 01:30:43;;;;;;;32.35;19.85;;;8.50;99.90;;;;;;5009242;28;20030;-73
2021/12/14 01:33:12;;;;;;;34.05;19.95;;;8.50;99.90;;;;;;5008169;28;20033;-74
2021/12/14 01:35:41;;;;;;;33.92;20.27;;;8.50;99.90;;;;;;5013778;28;20030;-74
2021/12/14 01:40:53;;;;;;;;;;;8.50;99.90;;;;;;5016184;28;20200;-74
2021/12/14 01:43:33;;;;;;;28.50;17.75;;;8.50;99.90;;;;;;5014467;28;20044;-74
2021/12/14 01:46:09;;;;;;;36.28;20.20;;;8.50;99.90;;;;;;5012539;28;20530;-74
2021/12/14 01:48:35;;;;;;;31.00;19.35;;;8.50;99.90;;;;;;5013288;28;20038;-74
2021/12/14 01:51:04;;;;;;;30.52;19.15;;;8.50;99.90;;;;;;5021663;28;20113;-72
2021/12/14 01:53:29;;;;;;;31.02;18.50;;;8.50;99.90;;;;;;5013582;28;20033;-73
2021/12/14 01:55:59;;;;;;;32.28;19.48;;;8.50;99.90;;;;;;5010812;28;20026;-74
2021/12/14 01:58:32;;;;;;;33.88;19.27;;;8.60;99.90;;;;;;5007965;28;20023;-74
2021/12/14 02:01:04;;;;;;;41.97;21.23;;;8.50;99.90;;;;;;5010637;28;20026;-74
2021/12/14 02:03:35;;;;;;;30.42;18.63;;;8.50;99.90;;;;;;5011805;28;20050;-74
2021/12/14 02:06:01;;;;;;;32.25;19.13;;;8.50;99.90;;;;;;5011477;28;20030;-74
2021/12/14 02:08:32;;;;;;;34.75;19.80;;;8.50;99.90;;;;;;5012975;28;20507;-74
2021/12/14 02:11:00;;;;;;;32.08;18.35;;;8.50;99.90;;;;;;5013505;28;20038;-74
2021/12/14 02:13:30;;;;;;;32.67;19.50;;;8.40;99.90;;;;;;5011795;28;20037;-75
2021/12/14 02:15:57;;;;;;;32.93;20.00;;;8.50;99.90;;;;;;4995868;28;20072;-74
2021/12/14 02:18:25;;;;;;;31.40;19.00;;;8.50;99.90;;;;;;5012819;28;20272;-74
2021/12/14 02:20:58;;;;;;;30.98;18.27;;;8.50;99.90;;;;;;5013742;28;20034;-72
2021/12/14 02:23:24;;;;;;;34.95;18.67;;;8.50;99.90;;;;;;5011242;28;20136;-74
2021/12/14 02:25:52;;;;;;;33.38;18.95;;;8.50;99.90;;;;;;5013555;28;20488;-75
2021/12/14 02:28:20;;;;;;;30.45;19.30;;;8.50;99.90;;;;;;5012113;28;20036;-72
2021/12/14 02:30:47;;;;;;;37.92;20.08;;;8.40;99.90;;;;;;5011293;28;20026;-72
2021/12/14 02:33:21;;;;;;;31.73;19.45;;;8.50;99.90;;;;;;5011283;28;20101;-74
2021/12/14 02:35:48;;;;;;;32.80;19.15;;;8.40;99.90;;;;;;5009353;28;20029;-72
2021/12/14 02:38:17;;;;;;;30.88;18.38;;;8.50;99.90;;;;;;4994679;28;21480;-73
2021/12/14 02:40:57;;;;;;;31.75;19.15;;;8.50;99.90;;;;;;5012087;28;20057;-73
2021/12/14 02:43:35;;;;;;;29.87;18.23;;;8.50;99.90;;;;;;5004549;28;20030;-72
2021/12/14 02:46:10;;;;;;;29.70;17.98;;;8.50;99.90;;;;;;5010219;28;20292;-74
2021/12/14 02:48:39;;;;;;;32.70;18.02;;;8.40;99.90;;;;;;5008440;28;20037;-75
2021/12/14 02:51:27;;;;;;;32.35;19.23;;;8.50;99.90;;;;;;5006718;28;20041;-74
2021/12/14 02:54:00;;;;;;;34.50;19.95;;;8.50;99.90;;;;;;5010437;28;20033;-74
2021/12/14 02:56:29;;;;;;;32.00;18.83;;;8.50;99.90;;;;;;5008007;28;20031;-74
2021/12/14 02:59:08;;;;;;;27.65;16.83;;;8.50;99.90;;;;;;5011792;28;20014;-75
2021/12/14 03:01:36;;;;;;;29.83;18.35;;;8.50;99.90;;;;;;4993274;28;20033;-74
2021/12/14 03:04:05;;;;;;;29.90;17.75;;;8.50;99.90;;;;;;5009395;28;20030;-74
2021/12/14 03:06:36;;;;;;;32.75;17.83;;;8.50;99.90;;;;;;5009575;28;20037;-74
2021/12/14 03:09:19;;;;;;;31.48;18.98;;;8.50;99.90;;;;;;5011414;28;20516;-75
2021/12/14 03:11:46;;;;;;;30.65;19.25;;;8.50;99.90;;;;;;5008829;28;20309;-74
2021/12/14 03:14:11;;;;;;;32.50;18.40;;;8.50;99.90;;;;;;5033652;22;20540;-74
2021/12/14 03:16:38;;;;;;;31.27;18.73;;;8.50;99.90;;;;;;5007317;28;20113;-73
2021/12/14 03:19:06;;;;;;;29.77;18.27;;;8.50;99.90;;;;;;5007810;28;20033;-73
2021/12/14 03:21:36;;;;;;;28.55;18.40;;;8.50;99.90;;;;;;5009043;28;20494;-73
2021/12/14 03:24:08;;;;;;;31.40;19.65;;;8.50;99.90;;;;;;5008004;28;20033;-74
2021/12/14 03:26:36;;;;;;;29.08;17.95;;;8.50;99.90;;;;;;4991040;28;20036;-73
2021/12/14 03:29:27;;;;;;;31.27;19.17;;;8.50;99.90;;;;;;5008527;28;20035;-73
2021/12/14 03:31:57;;;;;;;29.35;18.77;;;8.50;99.90;;;;;;4999130;28;20120;-73
2021/12/14 03:34:27;;;;;;;32.83;18.77;;;8.50;99.90;;;;;;5007188;28;20018;-73
2021/12/14 03:37:08;;;;;;;28.73;18.50;;;8.50;99.90;;;;;;5008021;28;20057;-74
2021/12/14 03:39:44;;;;;;;31.23;18.98;;;8.50;99.90;;;;;;5008650;28;20038;-74
2021/12/14 03:42:16;;;;;;;33.17;18.38;;;8.50;99.90;;;;;;5005441;28;20388;-73
2021/12/14 03:44:48;;;;;;;31.33;19.40;;;8.50;99.90;;;;;;5007869;28;20479;-74
2021/12/14 03:47:14;;;;;;;27.95;17.58;;;8.50;99.90;;;;;;5008822;28;20574;-73
2021/12/14 03:49:44;;;;;;;27.23;17.98;;;8.50;99.90;;;;;;5007660;28;20037;-74
2021/12/14 03:52:17;;;;;;;31.15;19.52;;;8.40;99.90;;;;;;4989427;28;20038;-74
2021/12/14 03:54:43;;;;;;;33.30;18.02;;;8.50;99.90;;;;;;4990717;28;20022;-74
2021/12/14 03:57:10;;;;;;;29.35;18.85;;;8.40;99.90;;;;;;5007590;28;20034;-73
2021/12/14 03:59:37;;;;;;;28.30;18.48;;;8.40;99.90;;;;;;5007730;28;20025;-73
2021/12/14 04:02:05;;;;;;;29.58;17.27;;;8.40;99.90;;;;;;4989257;28;20025;-73
2021/12/14 04:05:05;;;;;;;35.78;18.80;;;8.40;99.90;;;;;;5007241;28;20057;-73
2021/12/14 04:07:34;;;;;;;34.83;19.38;;;8.40;99.90;;;;;;5005200;28;20042;-73
2021/12/14 04:10:00;;;;;;;32.95;18.83;;;8.40;99.90;;;;;;5008173;28;20038;-74
2021/12/14 04:12:27;;;;;;;30.20;18.95;;;8.40;99.90;;;;;;5006663;28;20505;-74
2021/12/14 04:14:57;;;;;;;30.58;17.85;;;8.40;99.90;;;;;;5008124;28;20537;-74
2021/12/14 04:17:25;;;;;;;30.17;17.45;;;8.40;99.90;;;;;;4990086;28;20030;-73
2021/12/14 04:19:55;;;;;;;32.63;19.73;;;8.40;99.90;;;;;;4990080;28;20030;-74
2021/12/14 04:22:25;;;;;;;30.90;19.60;;;8.40;99.90;;;;;;5007248;28;20022;-73
2021/12/14 04:24:55;;;;;;;35.08;19.38;;;8.40;99.90;;;;;;4987057;28;20030;-73
2021/12/14 04:27:24;;;;;;;29.52;18.13;;;8.40;99.90;;;;;;5007697;28;20120;-73
2021/12/14 04:29:51;;;;;;;30.15;19.23;;;8.40;99.90;;;;;;5006803;28;20076;-74
2021/12/14 04:32:17;;;;;;;30.65;18.30;;;8.40;99.90;;;;;;5007965;28;20095;-73
2021/12/14 04:34:44;;;;;;;32.53;19.27;;;8.40;99.90;;;;;;5006132;28;20036;-73
2021/12/14 04:37:14;;;;;;;26.70;17.33;;;8.40;99.90;;;;;;5007576;28;20415;-74
2021/12/14 04:39:45;;;;;;;30.83;20.30;;;8.30;99.90;;;;;;4971184;28;20109;-73
2021/12/14 04:53:22;;;;;;;28.73;16.50;;;8.20;99.90;;;;;;5005222;28;20083;-73
2021/12/14 04:55:52;;;;;;;27.20;17.35;;;8.30;99.90;;;;;;4987457;28;20130;-73
2021/12/14 04:58:28;;;;;;;26.65;17.17;;;8.30;99.90;;;;;;5004565;28;20503;-73
2021/12/14 05:00:55;;;;;;;30.60;18.30;;;8.30;99.90;;;;;;5006899;28;20037;-73
2021/12/14 05:03:28;;;;;;;31.02;17.80;;;8.30;99.90;;;;;;5004410;28;20131;-73
2021/12/14 05:06:08;;;;;;;28.13;17.00;;;8.20;99.90;;;;;;5007352;28;20101;-74
2021/12/14 05:11:05;;;;;;;26.90;16.90;;;8.30;99.90;;;;;;5010539;28;20095;-74
2021/12/14 05:13:40;;;;;;;27.67;16.45;;;8.30;99.90;;;;;;4992072;28;20022;-73
2021/12/14 05:16:07;;;;;;;24.23;16.45;;;8.30;99.90;;;;;;4991827;28;20022;-73
2021/12/14 05:18:33;;;;;;;25.55;16.92;;;8.40;99.90;;;;;;5012271;28;20032;-74
2021/12/14 05:20:59;;;;;;;23.98;15.60;;;8.30;99.90;;;;;;5011183;28;20029;-74
2021/12/14 05:23:30;;;;;;;27.15;15.70;;;8.30;99.90;;;;;;5010747;28;20026;-74
2021/12/14 05:25:57;;;;;;;25.60;16.02;;;8.30;99.90;;;;;;5010864;28;20088;-73
2021/12/14 05:28:24;;;;;;;24.65;15.90;;;8.30;99.90;;;;;;4992534;28;20061;-73
2021/12/14 05:30:54;;;;;;;22.13;15.63;;;8.30;99.90;;;;;;5009929;28;20033;-73
2021/12/14 05:33:31;;;;;;;25.30;15.57;;;8.20;99.90;;;;;;4993473;28;20530;-73
2021/12/14 05:36:03;;;;;;;27.77;16.80;;;8.20;99.90;;;;;;5010119;28;20206;-73
2021/12/14 05:43:05;;;;;;;27.67;15.50;;;8.20;99.90;;;;;;5010719;28;20030;-74
2021/12/14 05:43:58;;;;;;;24.40;16.38;;;8.10;99.90;;;;;;5008758;28;20074;-74
2021/12/14 05:46:24;;;;;;;24.88;16.05;;;8.10;99.90;;;;;;5009406;28;20050;-74
2021/12/14 05:49:00;;;;;;;27.05;15.23;;;8.20;99.90;;;;;;4993534;28;20056;-73
2021/12/14 05:51:29;;;;;;;24.73;15.00;;;8.20;99.90;;;;;;5008730;28;20022;-74
2021/12/14 05:53:55;;;;;;;24.08;14.55;;;8.20;99.90;;;;;;5010237;28;20026;-75
2021/12/14 05:56:23;;;;;;;23.25;14.98;;;8.10;99.90;;;;;;5007835;28;20049;-75
2021/12/14 05:58:50;;;;;;;25.80;15.45;;;8.10;99.90;;;;;;4989718;28;20026;-75
2021/12/14 06:01:21;;;;;;;24.23;14.93;;;8.10;99.90;;;;;;4989714;28;20026;-73
2021/12/14 06:04:03;;;;;;;21.05;14.10;;;8.10;99.90;;;;;;5008718;28;20307;-74
2021/12/14 06:06:37;;;;;;;;;;;8.20;99.90;;;;;;5013569;28;20454;-73
2021/12/14 06:09:13;;;;;;;26.15;14.57;;;8.20;99.90;;;;;;4993424;28;19909;-74
2021/12/14 06:11:40;;;;;;;22.50;14.25;;;8.10;99.90;;;;;;5006560;28;20553;-73
2021/12/14 06:14:22;;;;;;;24.83;14.75;;;8.10;99.90;;;;;;5008441;28;20030;-73
2021/12/14 06:16:52;;;;;;;24.65;15.90;;;8.20;99.90;;;;;;5012147;28;20056;-75
2021/12/14 06:19:25;;;;;;;25.75;15.60;;;8.20;99.90;;;;;;4993563;28;20591;-75
2021/12/14 06:21:57;;;;;;;21.77;14.40;;;8.20;99.90;;;;;;5010871;28;20041;-74
2021/12/14 06:24:26;;;;;;;24.08;14.73;;;8.20;99.90;;;;;;5009581;28;20029;-74
2021/12/14 06:26:54;;;;;;;22.65;14.45;;;8.20;99.90;;;;;;5008319;28;20026;-74
2021/12/14 06:29:24;;;;;;;23.48;14.85;;;8.20;99.90;;;;;;5007907;28;20029;-74
2021/12/14 06:31:52;;;;;;;26.20;15.02;;;8.30;99.90;;;;;;5009988;28;20022;-68
2021/12/14 06:34:22;;;;;;;24.70;15.85;;;8.30;99.90;;;;;;5011609;28;20511;-73
2021/12/14 06:36:49;;;;;;;27.40;15.02;;;8.20;99.90;;;;;;5008823;28;20528;-74
2021/12/14 06:39:16;;;;;;;21.65;14.52;;;8.30;99.90;;;;;;5011676;28;20037;-74
2021/12/14 06:41:42;;;;;;;25.13;16.52;;;8.30;99.90;;;;;;5009851;28;20030;-73
2021/12/14 06:44:07;;;;;;;28.88;16.80;;;8.20;99.90;;;;;;5008040;28;20095;-73
2021/12/14 06:46:36;;;;;;;27.27;17.23;;;8.20;99.90;;;;;;5007094;28;20030;-73
2021/12/14 06:49:09;;;;;;;26.00;16.13;;;8.20;99.90;;;;;;5009404;28;20108;-73
2021/12/14 06:51:39;;;;;;;28.50;16.80;;;8.20;99.90;;;;;;5010473;28;20030;-74
2021/12/14 06:54:17;;;;;;;26.13;15.93;;;8.20;99.90;;;;;;4990596;28;20036;-74
2021/12/14 06:56:48;;;;;;;26.58;16.27;;;8.10;99.90;;;;;;5009062;28;20450;-74
2021/12/14 06:59:16;;;;;;;32.72;18.15;;;8.20;99.90;;;;;;5008637;28;20041;-73
2021/12/14 07:01:52;;;;;;;27.08;16.45;;;8.20;99.90;;;;;;5009405;28;20052;-73
2021/12/14 07:04:42;;;;;;;29.00;17.27;;;8.20;99.90;;;;;;5007136;28;20053;-74
2021/12/14 07:07:11;;;;;;;28.17;17.92;;;8.10;99.90;;;;;;5009699;28;20037;-77
2021/12/14 07:09:43;;;;;;;28.70;16.73;;;8.10;99.90;;;;;;5009550;28;20030;-74
2021/12/14 07:12:15;;;;;;;31.73;17.65;;;8.20;99.90;;;;;;5010597;28;20479;-74
2021/12/14 07:14:58;;;;;;;29.15;17.23;;;8.20;99.90;;;;;;5007762;28;20038;-74
2021/12/14 07:17:27;;;;;;;28.40;16.80;;;8.20;99.90;;;;;;5007464;28;20026;-74
2021/12/14 07:19:53;;;;;;;27.83;17.40;;;8.10;99.90;;;;;;5006176;28;20041;-73
2021/12/14 07:22:26;;;;;;;29.95;18.02;;;8.10;99.90;;;;;;5006643;28;20022;-74
2021/12/14 07:25:07;;;;;;;31.33;16.50;;;8.10;99.90;;;;;;5010162;28;20109;-73
2021/12/14 07:27:37;;;;;;;;;;;8.20;99.90;;;;;;5009911;28;20047;-73
2021/12/14 07:30:24;;;;;;;24.48;15.70;;;8.20;99.90;;;;;;5006924;28;20000;-73
2021/12/14 07:33:01;;;;;;;29.60;16.48;;;8.20;99.90;;;;;;5013827;28;20052;-72
2021/12/14 07:35:41;;;;;;;29.17;16.48;;;8.30;99.90;;;;;;5007702;28;20407;-73
2021/12/14 07:38:16;;;;;;;28.20;17.77;;;8.30;99.90;;;;;;5006312;28;20109;-73
2021/12/14 07:40:46;;;;;;;33.78;17.90;;;8.30;99.90;;;;;;5005864;28;20048;-73
2021/12/14 07:43:50;;;;;;;32.45;18.83;;;8.30;99.90;;;;;;5005937;28;20084;-72
2021/12/14 07:46:32;;;;;;;33.63;18.15;;;8.20;99.90;;;;;;4991050;28;20118;-72
2021/12/14 07:49:04;;;;;;;34.85;19.10;;;8.20;99.90;;;;;;5007073;28;20048;-73
2021/12/14 07:51:33;;;;;;;35.00;19.65;;;8.20;99.90;;;;;;5006865;28;20034;-72
2021/12/14 07:54:06;;;;;;;37.20;20.63;;;8.20;99.90;;;;;;5006765;28;20049;-72
2021/12/14 07:56:37;;;;;;;36.75;20.60;;;8.20;99.90;;;;;;5008416;28;20084;-72
2021/12/14 07:59:29;;;;;;;33.25;19.40;;;8.20;99.90;;;;;;5007108;28;20141;-72
2021/12/14 08:02:18;;;;;;;36.30;19.45;;;8.20;99.90;;;;;;5005865;28;20033;-72
2021/12/14 08:04:54;;;;;;;37.95;20.05;;;8.20;99.90;;;;;;5008617;28;20022;-72
2021/12/14 08:07:34;;;;;;;36.05;19.88;;;8.20;99.90;;;;;;5008167;28;20043;-73
2021/12/14 08:10:05;;;;;;;34.13;19.17;;;8.20;99.90;;;;;;5005173;28;20030;-73
2021/12/14 08:12:58;;;;;;;33.15;19.40;;;8.20;99.90;;;;;;5007158;28;20080;-72
2021/12/14 08:15:39;;;;;;;39.42;19.30;;;8.20;99.90;;;;;;5008779;28;20044;-73
2021/12/14 08:18:19;;;;;;;34.53;20.92;;;8.30;99.90;;;;;;5005341;28;20510;-74
2021/12/14 08:20:52;;;;;;;37.08;19.35;;;8.20;99.90;;;;;;5007118;28;20033;-72
2021/12/14 08:23:17;;;;;;;35.80;20.00;;;8.20;99.90;;;;;;5007938;28;20090;-72
2021/12/14 08:25:43;;;;;;;35.25;20.02;;;8.30;99.90;;;;;;5005626;28;20030;-72
2021/12/14 08:28:10;;;;;;;39.42;21.85;;;8.30;99.90;;;;;;4991145;28;20065;-73
2021/12/14 08:30:39;;;;;;;34.17;19.40;;;8.30;99.90;;;;;;5007985;28;20034;-73
2021/12/14 08:33:19;;;;;;;33.20;19.42;;;8.30;99.90;;;;;;5008734;28;20034;-73
2021/12/14 08:35:45;;;;;;;35.80;20.52;;;8.30;99.90;;;;;;5008163;28;20101;-74
2021/12/14 08:38:15;;;;;;;38.88;20.10;;;8.30;99.90;;;;;;4992209;28;20025;-73
2021/12/14 08:40:45;;;;;;;33.90;20.77;;;8.30;99.90;;;;;;5008153;28;20021;-73
2021/12/14 08:43:22;;;;;;;41.60;21.63;;;8.40;99.90;;;;;;5009034;28;20523;-74
2021/12/14 08:45:54;;;;;;;36.17;21.95;;;8.30;99.90;;;;;;5014258;28;20030;-73
2021/12/14 08:48:34;;;;;;;39.47;20.83;;;8.40;99.90;;;;;;4996607;28;20022;-73
2021/12/14 08:51:13;;;;;;;46.17;23.95;;;8.40;99.90;;;;;;5013098;28;20029;-73
2021/12/14 08:54:03;;;;;;;36.58;21.55;;;8.40;99.90;;;;;;5012800;28;20064;-73
2021/12/14 08:56:34;;;;;;;42.72;21.58;;;8.40;99.90;;;;;;5001224;28;20038;-73
2021/12/14 08:59:01;;;;;;;37.72;21.08;;;8.40;99.90;;;;;;5013132;28;20022;-73
2021/12/14 09:01:29;;;;;;;44.00;22.00;;;8.40;99.90;;;;;;5014327;28;20034;-73
2021/12/14 09:04:06;;;;;;;43.42;21.55;;;8.40;99.90;;;;;;5014499;28;20034;-72
2021/12/14 09:06:37;;;;;;;39.50;21.67;;;8.40;99.90;;;;;;5015188;28;20069;-73
2021/12/14 09:09:06;;;;;;;42.35;24.55;;;8.40;99.90;;;;;;5013654;28;20033;-73
2021/12/14 09:11:35;;;;;;;43.20;23.90;;;8.40;99.90;;;;;;5014488;28;20029;-74
2021/12/14 09:14:09;;;;;;;36.42;21.08;;;8.40;99.90;;;;;;5036538;23;20077;-74
2021/12/14 09:16:36;;;;;;;47.72;23.73;;;8.40;99.90;;;;;;5014303;28;20380;-72
2021/12/14 09:19:14;;;;;;;42.55;22.38;;;8.40;99.90;;;;;;5014215;28;20105;-75
2021/12/14 09:21:45;;;;;;;51.20;26.33;;;8.30;99.90;;;;;;5008251;28;20034;-73
2021/12/14 09:24:14;;;;;;;;;;;8.30;99.90;;;;;;5013326;28;20625;-73
2021/12/14 09:26:45;;;;;;;44.78;22.73;;;8.30;99.90;;;;;;5013958;28;19978;-73
2021/12/14 09:29:14;;;;;;;43.50;21.10;;;8.30;99.90;;;;;;5014132;28;20484;-73
2021/12/14 09:31:43;;;;;;;48.60;23.33;;;8.30;99.90;;;;;;5013321;28;20038;-73
2021/12/14 09:34:12;;;;;;;48.22;24.60;;;8.40;99.90;;;;;;5011990;28;20053;-73
2021/12/14 09:36:38;;;;;;;53.70;25.00;;;8.30;99.90;;;;;;5011576;28;20179;-73
2021/12/14 09:39:11;;;;;;;48.85;24.55;;;8.30;99.90;;;;;;5010822;28;20067;-74
2021/12/14 09:41:39;;;;;;;48.78;24.65;;;8.30;99.90;;;;;;5007326;28;20033;-73
2021/12/14 09:44:09;;;;;;;52.88;26.75;;;8.40;99.90;;;;;;5010158;28;20084;-73
2021/12/14 09:46:35;;;;;;;46.20;25.55;;;8.40;99.90;;;;;;5010585;28;20029;-73
2021/12/14 09:49:05;;;;;;;45.33;23.23;;;8.40;99.90;;;;;;5010502;28;20030;-73
2021/12/14 09:51:35;;;;;;;52.53;25.20;;;8.50;99.90;;;;;;5009662;28;20042;-73
2021/12/14 09:54:04;;;;;;;49.55;25.45;;;8.40;99.90;;;;;;5010555;28;20029;-73
2021/12/14 09:56:37;;;;;;;50.83;25.80;;;8.50;99.90;;;;;;5012010;28;20491;-73
2021/12/14 09:59:06;;;;;;;47.28;24.30;;;8.50;99.90;;;;;;4992627;28;20037;-73
2021/12/14 10:01:40;;;;;;;54.78;26.20;;;8.50;99.90;;;;;;5010741;28;20038;-74
2021/12/14 10:04:13;;;;;;;50.60;24.90;;;8.40;99.90;;;;;;5010370;28;20041;-74
2021/12/14 10:06:39;;;;;;;56.13;26.73;;;8.40;99.90;;;;;;5011800;28;20030;-74
2021/12/14 10:09:13;;;;;;;51.13;26.10;;;8.40;99.90;;;;;;5013541;28;20206;-74
2021/12/14 10:14:23;;;;;;;48.88;25.23;;;8.40;99.90;;;;;;5010297;28;20170;-74
2021/12/14 10:16:50;;;;;;;51.95;26.80;;;8.40;99.90;;;;;;4992191;28;20107;-73
2021/12/14 10:19:21;;;;;;;59.92;28.38;;;8.40;99.90;;;;;;5010026;28;20558;-73
2021/12/14 10:21:54;;;;;;;47.50;24.73;;;8.50;99.90;;;;;;5011578;28;20097;-73
2021/12/14 10:24:20;;;;;;;52.88;25.95;;;8.50;99.90;;;;;;4991034;28;20047;-74
2021/12/14 10:26:57;;;;;;;50.17;26.08;;;8.40;99.90;;;;;;5009184;28;20026;-74
2021/12/14 10:29:26;;;;;;;52.65;24.63;;;8.40;99.90;;;;;;5010838;28;20030;-73
2021/12/14 10:31:59;;;;;;;40.40;22.55;;;8.50;99.90;;;;;;4992448;28;20032;-74
2021/12/14 10:34:26;;;;;;;46.42;23.60;;;8.50;99.90;;;;;;5011028;28;20033;-75
2021/12/14 10:37:06;;;;;;;46.55;24.55;;;8.50;99.90;;;;;;5010268;28;20078;-74
2021/12/14 10:44:50;;;;;;;49.33;25.60;;;8.50;99.90;;;;;;5009409;28;20024;-73
2021/12/14 10:47:19;;;;;;;50.58;25.77;;;8.60;99.90;;;;;;5009283;28;20037;-73
2021/12/14 10:49:45;;;;;;;49.67;25.95;;;8.50;99.90;;;;;;5007650;28;20014;-73
2021/12/14 10:52:17;;;;;;;54.78;28.00;;;8.50;99.90;;;;;;4996112;28;20026;-76
2021/12/14 10:54:48;;;;;;;52.80;26.65;;;8.50;99.90;;;;;;5013904;28;20030;-73
2021/12/14 10:57:18;;;;;;;54.17;26.08;;;8.50;99.90;;;;;;5010716;28;20049;-73
2021/12/14 10:59:50;;;;;;;52.30;26.63;;;8.50;99.90;;;;;;5010189;28;20065;-73
2021/12/14 11:02:20;;;;;;;52.78;26.60;;;8.50;99.90;;;;;;5010037;28;20029;-73
2021/12/14 11:04:54;;;;;;;49.75;25.30;;;8.50;99.90;;;;;;5009650;28;20474;-73
2021/12/14 11:07:40;;;;;;;52.72;27.10;;;8.50;99.90;;;;;;4988666;28;20026;-73
2021/12/14 11:10:24;;;;;;;56.20;28.85;;;8.40;99.90;;;;;;5009711;28;20025;-73
2021/12/14 11:12:56;;;;;;;57.35;27.58;;;8.40;99.90;;;;;;5017244;28;20030;-74
2021/12/14 11:15:30;;;;;;;61.88;28.52;;;8.40;99.90;;;;;;5017284;28;20514;-73
2021/12/14 11:18:13;;;;;;;47.70;23.98;;;8.40;99.90;;;;;;5006361;28;20033;-73
2021/12/14 11:20:53;;;;;;;51.95;26.77;;;8.50;99.90;;;;;;5006406;28;20026;-72
2021/12/14 11:23:25;;;;;;;53.97;25.90;;;8.50;99.90;;;;;;5009589;28;20238;-74
2021/12/14 11:25:51;;;;;;;64.03;30.80;;;8.50;99.90;;;;;;5010410;28;20396;-74
2021/12/14 11:28:36;;;;;;;52.38;27.25;;;8.50;99.90;;;;;;5011127;28;20026;-75
2021/12/14 11:31:14;;;;;;;53.92;27.15;;;8.50;99.90;;;;;;5007025;28;20026;-75
2021/12/14 11:34:10;;;;;;;50.20;24.33;;;8.50;99.90;;;;;;5009290;28;20471;-74
2021/12/14 11:37:03;;;;;;;52.55;25.75;;;8.50;99.90;;;;;;5011182;28;20049;-73
2021/12/14 11:39:34;;;;;;;51.30;24.85;;;8.60;99.90;;;;;;5008417;28;20038;-73
2021/12/14 11:42:05;;;;;;;53.40;27.05;;;8.60;99.90;;;;;;5009670;28;20026;-73
2021/12/14 11:44:41;;;;;;;56.67;28.15;;;8.50;99.90;;;;;;4992927;28;20022;-74
2021/12/14 11:48:03;;;;;;;54.30;26.70;;;8.60;99.90;;;;;;5007867;28;20053;-72
2021/12/14 11:50:38;;;;;;;51.10;25.27;;;8.60;99.90;;;;;;4996995;28;20077;-73
2021/12/14 11:53:09;;;;;;;48.05;24.40;;;8.70;99.90;;;;;;5004484;28;20411;-73
2021/12/14 11:55:45;;;;;;;51.13;25.52;;;8.70;99.90;;;;;;4989293;28;20050;-72
2021/12/14 11:58:19;;;;;;;45.47;22.48;;;8.80;99.90;;;;;;4990023;28;20037;-75
2021/12/14 12:00:58;;;;;;;48.78;24.80;;;8.80;99.90;;;;;;5006807;28;20036;-74
2021/12/14 12:03:33;;;;;;;45.40;23.95;;;8.70;99.90;;;;;;5005269;28;20033;-75
2021/12/14 12:06:45;;;;;;;46.20;23.77;;;8.70;99.90;;;;;;4996753;28;20030;-76
2021/12/14 12:09:32;;;;;;;40.42;21.40;;;8.80;99.90;;;;;;5011276;28;20030;-74
2021/12/14 12:12:04;;;;;;;48.33;23.23;;;8.70;99.90;;;;;;5009522;28;20376;-76
2021/12/14 12:15:05;;;;;;;47.10;22.02;;;8.70;99.90;;;;;;5013131;28;20037;-76
2021/12/14 12:17:43;;;;;;;45.45;23.05;;;8.70;99.90;;;;;;5010860;28;20041;-75
2021/12/14 12:20:49;;;;;;;51.90;24.17;;;8.70;99.90;;;;;;4986849;28;20022;-77
2021/12/14 12:23:26;;;;;;;44.33;21.20;;;8.70;99.90;;;;;;5011248;28;20459;-76
2021/12/14 12:26:00;;;;;;;41.67;20.73;;;8.70;99.90;;;;;;4993330;28;20105;-76
2021/12/14 12:28:43;;;;;;;45.65;22.42;;;8.70;99.90;;;;;;4993781;28;20041;-76
2021/12/14 12:31:19;;;;;;;39.85;20.05;;;8.70;99.90;;;;;;5010069;28;20076;-77
2021/12/14 12:33:58;;;;;;;39.33;19.98;;;8.70;99.90;;;;;;5012059;28;20036;-76
2021/12/14 12:36:28;;;;;;;35.08;18.40;;;8.70;99.90;;;;;;4992256;28;20022;-75
2021/12/14 12:39:17;;;;;;;36.67;19.88;;;8.70;99.90;;;;;;4991319;28;20387;-76
2021/12/14 12:41:56;;;;;;;32.63;17.70;;;8.70;99.90;;;;;;5008189;28;20037;-75
2021/12/14 12:44:48;;;;;;;36.95;18.42;;;8.70;99.90;;;;;;5004907;28;20033;-75
2021/12/14 12:47:18;;;;;;;36.80;18.65;;;8.70;99.90;;;;;;5004646;28;20114;-77
2021/12/14 12:49:48;;;;;;;33.27;18.30;;;8.70;99.90;;;;;;5011420;28;20029;-76
2021/12/14 12:52:13;;;;;;;33.17;18.45;;;8.70;99.90;;;;;;5010749;28;20681;-75
2021/12/14 12:55:00;;;;;;;55.47;31.23;;;8.70;99.90;;;;;;4993801;28;20022;-75
2021/12/14 12:57:31;;;;;;;71.70;37.53;;;8.80;99.90;;;;;;5009657;28;20022;-75
2021/12/14 13:00:18;;;;;;;37.38;18.70;;;8.80;99.90;;;;;;4990639;28;20021;-74
2021/12/14 13:02:56;;;;;;;34.72;18.65;;;8.80;99.90;;;;;;5010103;28;20057;-75
2021/12/14 13:05:27;;;;;;;66.55;37.75;;;8.80;99.90;;;;;;5008011;28;20030;-75
2021/12/14 13:08:01;;;;;;;36.83;19.13;;;8.80;99.90;;;;;;5010807;28;20088;-76
2021/12/14 13:10:34;;;;;;;33.63;17.42;;;8.90;99.90;;;;;;5010680;28;20033;-76
2021/12/14 13:13:24;;;;;;;31.65;17.33;;;8.80;99.90;;;;;;5008530;28;20220;-77
2021/12/14 13:15:57;;;;;;;29.25;15.90;;;8.90;99.90;;;;;;5009595;28;20034;-77
2021/12/14 13:18:38;;;;;;;29.02;16.98;;;8.90;99.90;;;;;;4995712;28;20025;-76
2021/12/14 13:21:16;;;;;;;33.90;17.38;;;8.90;99.90;;;;;;5010452;28;20049;-76
2021/12/14 13:23:50;;;;;;;30.65;16.08;;;8.90;99.90;;;;;;5009959;28;20033;-76
2021/12/14 13:26:22;;;;;;;32.13;17.70;;;8.90;99.90;;;;;;5009963;28;20076;-76
2021/12/14 13:28:49;;;;;;;31.85;17.70;;;8.90;99.90;;;;;;4993103;28;20038;-76
2021/12/14 13:31:43;;;;;;;31.10;16.33;;;8.90;99.90;;;;;;4995453;28;20396;-76
2021/12/14 13:34:14;;;;;;;30.73;16.85;;;8.90;99.90;;;;;;5021553;28;20132;-75
2021/12/14 13:36:41;;;;;;;30.48;15.73;;;8.90;99.90;;;;;;5015366;28;20033;-76
2021/12/14 13:39:09;;;;;;;29.70;16.27;;;8.90;99.90;;;;;;5014602;28;20034;-76
2021/12/14 13:41:59;;;;;;;26.70;14.65;;;8.90;99.90;;;;;;5012849;28;20434;-75
2021/12/14 13:44:36;;;;;;;27.25;14.77;;;8.90;99.90;;;;;;5013200;28;20030;-75